Time;durP1;ratioP1;P1;durP2;ratioP2;P2;SDS_P1;SDS_P2;PMS_P1;PMS_P2;Temp;Humidity;BMP_temperature;BMP_pressure;BME280_temperature;BME280_humidity;BME280_pressure;Samples;Min_cycle;Max_cycle;Signal;HPM_P1;HPM_P2
2022/10/21 00:04:43;;;;;;;36.90;16.33;;;2.70;99.90;;;;;;10392242;28;20049;-77
2022/10/21 00:09:44;;;;;;;37.40;17.43;;;2.70;99.90;;;;;;10403443;28;20063;-78
2022/10/21 00:14:44;;;;;;;38.63;19.30;;;2.70;99.90;;;;;;10404653;28;20659;-77
2022/10/21 00:19:45;;;;;;;43.63;20.53;;;2.60;99.90;;;;;;10407667;28;20141;-81
2022/10/21 00:24:46;;;;;;;39.87;19.93;;;2.60;99.90;;;;;;10407650;28;20057;-77
2022/10/21 00:29:46;;;;;;;41.87;20.10;;;2.50;99.90;;;;;;10403814;28;20105;-80
2022/10/21 00:34:47;;;;;;;57.93;25.57;;;2.50;99.90;;;;;;10408243;28;20120;-77
2022/10/21 00:39:47;;;;;;;61.50;28.13;;;2.40;99.90;;;;;;10403114;28;20047;-80
2022/10/21 00:45:03;;;;;;;50.37;23.93;;;2.30;99.90;;;;;;10410621;28;20105;-77
2022/10/21 00:50:04;;;;;;;50.72;25.00;;;2.40;99.90;;;;;;10408447;28;20025;-79
2022/10/21 00:55:06;;;;;;;52.57;25.23;;;2.30;99.90;;;;;;10409424;28;20048;-78
2022/10/21 01:00:07;;;;;;;55.30;24.00;;;2.30;99.90;;;;;;10409255;28;20400;-80
2022/10/21 01:05:09;;;;;;;49.43;23.53;;;2.30;99.90;;;;;;10407403;28;20046;-77
2022/10/21 01:10:10;;;;;;;48.10;22.30;;;2.20;99.90;;;;;;10405283;28;20385;-79
2022/10/21 01:15:44;;;;;;;59.20;24.17;;;2.20;99.90;;;;;;10408296;28;20060;-79
2022/10/21 01:20:44;;;;;;;53.87;25.30;;;2.30;99.90;;;;;;10395620;28;20045;-80
2022/10/21 01:26:03;;;;;;;47.63;22.50;;;2.30;99.90;;;;;;10405288;28;20084;-79
2022/10/21 01:31:17;;;;;;;45.50;21.10;;;2.30;99.90;;;;;;10407127;28;20021;-79
2022/10/21 01:36:38;;;;;;;43.07;19.73;;;2.30;99.90;;;;;;10406927;28;20045;-78
2022/10/21 01:41:44;;;;;;;38.40;17.27;;;2.30;99.90;;;;;;10403188;28;20095;-79
2022/10/21 01:46:55;;;;;;;41.97;18.45;;;2.30;99.90;;;;;;10400192;28;20036;-77
2022/10/21 01:51:59;;;;;;;44.03;18.63;;;2.30;99.90;;;;;;10407375;28;20068;-78
2022/10/21 01:57:00;;;;;;;39.23;18.23;;;2.30;99.90;;;;;;10406524;28;20477;-77
2022/10/21 02:02:04;;;;;;;35.83;16.87;;;2.20;99.90;;;;;;10407374;28;20047;-77
2022/10/21 02:07:05;;;;;;;38.23;18.10;;;2.20;99.90;;;;;;10397240;28;20045;-80
2022/10/21 02:12:06;;;;;;;43.90;17.30;;;2.20;99.90;;;;;;10397751;28;20045;-78
2022/10/21 02:17:10;;;;;;;43.67;18.20;;;2.10;99.90;;;;;;10399608;28;20120;-80
2022/10/21 02:22:16;;;;;;;41.10;19.17;;;2.10;99.90;;;;;;10403271;28;20120;-80
2022/10/21 02:27:17;;;;;;;38.58;16.42;;;2.00;99.90;;;;;;10405375;28;20025;-77
2022/10/21 02:32:29;;;;;;;32.57;16.53;;;1.80;99.90;;;;;;10396831;28;20109;-80
2022/10/21 02:37:38;;;;;;;37.57;17.07;;;1.90;99.90;;;;;;10403801;28;20107;-78
2022/10/21 02:42:44;;;;;;;44.67;18.17;;;1.90;99.90;;;;;;10404129;28;20431;-81
2022/10/21 02:47:47;;;;;;;40.22;17.65;;;1.80;99.90;;;;;;10405479;28;20041;-77
2022/10/21 02:52:48;;;;;;;50.93;20.13;;;1.70;99.90;;;;;;10392844;28;20033;-83
2022/10/21 02:57:48;;;;;;;73.63;29.70;;;1.50;99.90;;;;;;10401504;28;20095;-78
2022/10/21 03:02:49;;;;;;;54.93;23.93;;;1.40;99.90;;;;;;10398544;28;20099;-80
2022/10/21 03:07:49;;;;;;;48.47;22.93;;;1.40;99.90;;;;;;10404348;28;20053;-81
2022/10/21 03:12:50;;;;;;;55.17;24.47;;;1.50;99.90;;;;;;10380726;28;20107;-78
2022/10/21 03:17:50;;;;;;;55.43;22.50;;;1.60;99.90;;;;;;10397503;28;20044;-77
2022/10/21 03:22:51;;;;;;;48.33;20.77;;;1.50;99.90;;;;;;10394086;28;20103;-78
2022/10/21 03:27:52;;;;;;;46.27;21.40;;;1.70;99.90;;;;;;10406002;28;20488;-78
2022/10/21 03:32:53;;;;;;;41.30;19.27;;;1.70;99.90;;;;;;10397726;28;20409;-80
2022/10/21 03:37:54;;;;;;;38.27;18.13;;;1.80;99.90;;;;;;10403760;28;20041;-79
2022/10/21 03:42:55;;;;;;;43.47;18.77;;;1.70;99.90;;;;;;10397040;28;20034;-79
2022/10/21 03:47:56;;;;;;;53.53;21.37;;;1.80;99.90;;;;;;10397191;28;20033;-79
2022/10/21 03:52:58;;;;;;;39.37;18.13;;;1.70;99.90;;;;;;10404718;28;20033;-80
2022/10/21 03:57:58;;;;;;;43.73;18.97;;;1.80;99.90;;;;;;10401815;28;20469;-79
2022/10/21 04:02:59;;;;;;;45.00;20.20;;;1.80;99.90;;;;;;10396456;28;20041;-77
2022/10/21 04:07:59;;;;;;;46.80;20.03;;;1.90;99.90;;;;;;10392166;28;20776;-78
2022/10/21 04:13:00;;;;;;;42.73;19.53;;;1.80;99.90;;;;;;10389667;28;20145;-77
2022/10/21 04:18:01;;;;;;;46.80;20.67;;;1.80;99.90;;;;;;10401586;28;20056;-77
2022/10/21 04:23:02;;;;;;;62.10;22.23;;;1.70;99.90;;;;;;10397453;28;20029;-77
2022/10/21 04:28:02;;;;;;;52.40;22.53;;;1.60;99.90;;;;;;10412191;28;20473;-79
2022/10/21 04:33:03;;;;;;;73.47;33.53;;;1.50;99.90;;;;;;10400027;28;20116;-77
2022/10/21 04:38:03;;;;;;;57.20;24.00;;;1.50;99.90;;;;;;10410919;28;20025;-79
2022/10/21 04:43:04;;;;;;;48.53;22.17;;;1.60;99.90;;;;;;10410978;28;20109;-78
2022/10/21 04:48:05;;;;;;;41.50;19.30;;;1.60;99.90;;;;;;10410165;28;20029;-78
2022/10/21 04:53:06;;;;;;;60.50;24.47;;;1.60;99.90;;;;;;10410593;28;20033;-77
2022/10/21 04:58:06;;;;;;;46.50;20.97;;;1.60;99.90;;;;;;10409847;28;20483;-80
2022/10/21 05:03:07;;;;;;;49.23;22.73;;;1.70;99.90;;;;;;10408284;28;20034;-77
2022/10/21 05:08:08;;;;;;;62.53;24.83;;;1.80;99.90;;;;;;10409841;28;20053;-79
2022/10/21 05:13:08;;;;;;;58.27;24.60;;;1.90;99.90;;;;;;10409354;28;20021;-80
2022/10/21 05:18:09;;;;;;;50.40;22.73;;;1.90;99.90;;;;;;10409393;28;20022;-79
2022/10/21 05:23:09;;;;;;;55.53;23.60;;;1.90;99.90;;;;;;10408901;28;20025;-79
2022/10/21 05:28:10;;;;;;;53.23;21.30;;;1.90;99.90;;;;;;10409261;28;20029;-79
2022/10/21 05:33:10;;;;;;;61.27;24.23;;;1.80;99.90;;;;;;10409460;28;20123;-81
2022/10/21 05:38:11;;;;;;;54.43;24.07;;;1.80;99.90;;;;;;10408757;28;20108;-81
2022/10/21 05:43:11;;;;;;;57.73;23.37;;;1.90;99.90;;;;;;10408332;28;20423;-79
2022/10/21 05:48:12;;;;;;;67.00;27.87;;;2.00;99.90;;;;;;10408501;28;20084;-81
2022/10/21 05:53:13;;;;;;;61.73;27.10;;;2.20;99.90;;;;;;10407835;28;20071;-79
2022/10/21 05:58:14;;;;;;;66.03;28.97;;;2.40;99.90;;;;;;10407712;28;20041;-80
2022/10/21 06:03:14;;;;;;;70.10;32.03;;;2.60;99.90;;;;;;10407330;28;20033;-79
2022/10/21 06:08:16;;;;;;;77.73;29.00;;;2.70;99.90;;;;;;10407765;28;20050;-79
2022/10/21 06:13:17;;;;;;;64.57;28.40;;;2.80;99.90;;;;;;10407244;28;20069;-80
2022/10/21 06:18:17;;;;;;;56.63;26.17;;;3.00;99.90;;;;;;10407420;28;20039;-80
2022/10/21 06:23:18;;;;;;;61.73;27.97;;;3.10;99.90;;;;;;10407083;28;20384;-79
2022/10/21 06:28:18;;;;;;;58.70;27.00;;;3.20;99.90;;;;;;10407054;28;20428;-79
2022/10/21 06:33:19;;;;;;;53.70;24.50;;;3.30;99.90;;;;;;10406811;28;20474;-79
2022/10/21 06:38:20;;;;;;;66.17;30.50;;;3.40;99.90;;;;;;10406470;28;20700;-82
2022/10/21 06:43:20;;;;;;;63.43;30.70;;;3.60;99.90;;;;;;10404581;28;20317;-80
2022/10/21 06:48:21;;;;;;;68.37;32.53;;;3.70;99.90;;;;;;10406272;28;20543;-79
2022/10/21 06:53:21;;;;;;;49.27;22.73;;;3.80;99.90;;;;;;10405841;28;20064;-80
2022/10/21 06:58:22;;;;;;;58.07;29.10;;;3.90;99.90;;;;;;10405580;28;20477;-79
2022/10/21 07:03:23;;;;;;;54.67;25.30;;;4.20;99.90;;;;;;10405491;28;20072;-81
2022/10/21 07:08:25;;;;;;;54.17;28.27;;;4.30;99.90;;;;;;10405137;28;20045;-79
2022/10/21 07:13:26;;;;;;;54.27;28.43;;;4.50;99.90;;;;;;10402877;28;20065;-82
2022/10/21 07:18:26;;;;;;;52.63;26.27;;;4.80;99.90;;;;;;10405730;28;20561;-80
2022/10/21 07:23:27;;;;;;;58.47;33.63;;;5.10;99.90;;;;;;10405048;28;20086;-81
2022/10/21 07:28:28;;;;;;;70.57;37.37;;;5.50;99.90;;;;;;10404699;28;20394;-80
2022/10/21 07:33:28;;;;;;;76.60;39.33;;;5.60;99.90;;;;;;10405499;28;20026;-82
2022/10/21 07:38:29;;;;;;;69.90;36.73;;;5.90;99.90;;;;;;10404498;28;20025;-79
2022/10/21 07:43:30;;;;;;;73.30;37.97;;;5.90;99.90;;;;;;10404804;28;20029;-79
2022/10/21 07:48:30;;;;;;;63.60;34.17;;;6.10;99.90;;;;;;10404832;28;20057;-79
2022/10/21 07:53:31;;;;;;;72.57;36.33;;;6.20;99.90;;;;;;10404565;28;20485;-79
2022/10/21 07:58:31;;;;;;;66.07;34.07;;;6.40;99.90;;;;;;10404703;28;20061;-80
2022/10/21 08:03:32;;;;;;;61.50;32.53;;;6.70;99.90;;;;;;10404167;28;20105;-79
2022/10/21 08:08:34;;;;;;;51.70;27.40;;;7.00;99.90;;;;;;10404075;28;20096;-80
2022/10/21 08:13:36;;;;;;;46.77;27.27;;;7.50;99.90;;;;;;10404888;28;20033;-80
2022/10/21 08:18:37;;;;;;;54.03;27.57;;;7.70;99.90;;;;;;10402946;28;20053;-79
2022/10/21 08:23:37;;;;;;;56.90;28.77;;;7.90;99.90;;;;;;10403794;28;20034;-79
2022/10/21 08:28:39;;;;;;;65.33;34.57;;;8.20;99.90;;;;;;10403951;28;20545;-79
2022/10/21 08:33:40;;;;;;;46.10;25.50;;;8.40;99.90;;;;;;10404298;28;20038;-79
2022/10/21 08:38:41;;;;;;;43.87;26.40;;;8.60;99.90;;;;;;10411106;28;20025;-78
2022/10/21 08:43:42;;;;;;;43.13;23.67;;;8.90;99.90;;;;;;10410787;28;20023;-79
2022/10/21 08:48:52;;;;;;;41.67;25.00;;;9.40;99.90;;;;;;10410483;28;20482;-78
2022/10/21 08:53:58;;;;;;;58.30;28.27;;;9.90;99.90;;;;;;10410338;28;20033;-79
2022/10/21 08:58:59;;;;;;;40.83;22.17;;;10.20;99.90;;;;;;10410764;28;20017;-79
2022/10/21 09:04:17;;;;;;;37.13;21.23;;;10.50;99.90;;;;;;10410267;28;20521;-78
2022/10/21 09:09:21;;;;;;;29.30;17.05;;;10.80;99.90;;;;;;10409422;28;20553;-82
2022/10/21 09:14:34;;;;;;;29.08;17.55;;;10.70;99.90;;;;;;10409255;28;20084;-79
2022/10/21 09:20:00;;;;;;;32.63;18.48;;;10.40;99.90;;;;;;10410496;28;20144;-79
2022/10/21 09:25:31;;;;;;;31.35;18.38;;;10.10;99.90;;;;;;10409430;28;20068;-79
2022/10/21 09:30:33;;;;;;;32.28;18.88;;;9.80;99.90;;;;;;10409915;28;20087;-78
2022/10/21 09:35:51;;;;;;;31.83;18.50;;;9.70;99.90;;;;;;10409053;28;20531;-81
2022/10/21 09:40:59;;;;;;;34.60;17.48;;;9.60;99.90;;;;;;10408742;28;20124;-79
2022/10/21 09:46:00;;;;;;;30.48;16.50;;;9.70;99.90;;;;;;10407660;28;20029;-79
2022/10/21 09:51:16;;;;;;;34.33;18.77;;;9.80;99.90;;;;;;10409192;28;20037;-79
2022/10/21 09:56:32;;;;;;;33.17;19.10;;;9.70;99.90;;;;;;10407783;28;20025;-81
2022/10/21 10:01:34;;;;;;;31.33;18.60;;;9.70;99.90;;;;;;10408530;28;20037;-78
2022/10/21 10:06:40;;;;;;;35.90;18.95;;;9.70;99.90;;;;;;10403799;28;20132;-78
2022/10/21 10:11:57;;;;;;;31.20;18.08;;;9.70;99.90;;;;;;10407747;28;20484;-78
2022/10/21 10:17:27;;;;;;;38.58;18.88;;;9.70;99.90;;;;;;10406899;28;20044;-79
2022/10/21 10:22:43;;;;;;;31.05;17.50;;;9.80;99.90;;;;;;10396435;28;20095;-79
2022/10/21 10:27:49;;;;;;;42.15;22.45;;;10.00;99.90;;;;;;10406413;28;20036;-78
2022/10/21 10:32:52;;;;;;;35.20;20.17;;;10.20;99.90;;;;;;10406477;28;20030;-81
2022/10/21 10:37:53;;;;;;;36.60;20.35;;;10.40;99.90;;;;;;10406839;28;20766;-79
2022/10/21 10:43:02;;;;;;;40.95;21.10;;;10.60;99.90;;;;;;10406091;28;20544;-78
2022/10/21 10:48:05;;;;;;;40.45;20.88;;;10.80;99.90;;;;;;10405716;28;20017;-78
2022/10/21 10:53:22;;;;;;;39.30;21.23;;;10.80;99.90;;;;;;10405998;28;20055;-82
2022/10/21 10:58:27;;;;;;;31.75;17.52;;;10.90;99.90;;;;;;10405030;28;20389;-79
2022/10/21 11:03:51;;;;;;;30.88;16.33;;;10.90;99.90;;;;;;10406312;28;20025;-79
2022/10/21 11:08:55;;;;;;;25.55;15.32;;;10.90;99.90;;;;;;10405197;28;20501;-78
2022/10/21 11:13:56;;;;;;;34.80;17.13;;;10.90;99.90;;;;;;10405257;28;20500;-82
2022/10/21 11:19:07;;;;;;;27.42;15.40;;;11.00;99.90;;;;;;10405048;28;20025;-81
2022/10/21 11:24:16;;;;;;;26.85;14.90;;;11.20;99.90;;;;;;10405160;28;20026;-82
2022/10/21 11:29:30;;;;;;;24.23;13.93;;;11.20;99.90;;;;;;10391783;28;20461;-81
2022/10/21 11:34:56;;;;;;;25.17;14.57;;;11.20;99.90;;;;;;10405005;28;20129;-79
2022/10/21 11:40:14;;;;;;;27.63;14.18;;;11.20;99.90;;;;;;10405358;28;20037;-79
2022/10/21 11:45:33;;;;;;;24.45;14.75;;;11.20;99.90;;;;;;10404750;28;20025;-79
2022/10/21 11:51:00;;;;;;;28.88;17.05;;;11.30;99.90;;;;;;10404512;28;20052;-79
2022/10/21 11:56:06;;;;;;;32.28;15.27;;;11.40;99.90;;;;;;10404437;28;20037;-79
2022/10/21 12:01:15;;;;;;;27.10;14.82;;;11.50;99.90;;;;;;10404200;28;20017;-78
2022/10/21 12:06:44;;;;;;;24.15;13.45;;;11.60;99.90;;;;;;10404709;28;20658;-80
2022/10/21 12:11:50;;;;;;;27.80;13.35;;;11.70;99.90;;;;;;10410306;28;20026;-78
2022/10/21 12:16:53;;;;;;;100.70;82.65;;;11.80;99.20;;;;;;10412151;28;20039;-78
2022/10/21 12:21:54;;;;;;;96.95;62.63;;;11.90;99.40;;;;;;10403718;28;20398;-80
2022/10/21 12:27:17;;;;;;;51.88;32.95;;;12.00;98.70;;;;;;10409823;28;20022;-79
2022/10/21 12:32:31;;;;;;;32.55;19.67;;;12.10;98.40;;;;;;10406038;28;20120;-80
2022/10/21 12:37:50;;;;;;;23.23;12.80;;;12.10;97.70;;;;;;10411239;28;20030;-82
2022/10/21 12:43:00;;;;;;;23.65;11.63;;;12.20;97.80;;;;;;10409998;28;20033;-81
2022/10/21 12:48:06;;;;;;;18.83;11.20;;;12.30;96.80;;;;;;10397265;28;20022;-79
2022/10/21 12:53:15;;;;;;;;;;;12.30;97.20;;;;;;10410754;28;20028;-79
2022/10/21 12:58:42;;;;;;;44.08;18.55;;;12.20;97.10;;;;;;10408750;28;19921;-79
2022/10/21 13:03:54;;;;;;;26.00;13.07;;;12.20;97.90;;;;;;10409815;28;20017;-79
2022/10/21 13:08:55;;;;;;;50.30;22.50;;;12.30;98.50;;;;;;10404990;28;20041;-79
2022/10/21 13:14:28;;;;;;;39.60;21.92;;;12.40;98.60;;;;;;10401146;28;20045;-79
2022/10/21 13:19:33;;;;;;;102.57;64.82;;;12.50;97.80;;;;;;10396169;28;20469;-78
2022/10/21 13:24:34;;;;;;;;;;;12.50;98.10;;;;;;10409578;28;20052;-79
2022/10/21 13:29:45;;;;;;;30.42;16.25;;;12.60;97.90;;;;;;10407461;28;19995;-78
2022/10/21 13:35:22;;;;;;;25.83;13.95;;;12.60;98.60;;;;;;10408739;28;20469;-81
2022/10/21 13:40:30;;;;;;;25.80;13.70;;;12.70;97.70;;;;;;10399004;28;20094;-80
2022/10/21 13:45:41;;;;;;;29.55;17.17;;;12.80;98.30;;;;;;10405933;28;20041;-79
2022/10/21 13:50:47;;;;;;;38.55;22.73;;;12.80;98.20;;;;;;10401382;28;20482;-79
2022/10/21 13:55:55;;;;;;;;;;;12.90;98.00;;;;;;10408986;28;20489;-81
2022/10/21 14:00:56;;;;;;;30.15;18.48;;;12.80;97.30;;;;;;10392390;28;19913;-80
2022/10/21 14:05:59;;;;;;;30.67;16.45;;;12.80;97.20;;;;;;10403065;28;20504;-81
2022/10/21 14:11:03;;;;;;;23.23;13.73;;;12.70;97.80;;;;;;10398184;28;20045;-79
2022/10/21 14:16:07;;;;;;;24.40;14.05;;;12.70;98.10;;;;;;10390729;28;20078;-84
2022/10/21 14:21:16;;;;;;;50.85;24.30;;;12.60;98.00;;;;;;10406646;28;20500;-81
2022/10/21 14:26:18;;;;;;;26.27;15.50;;;12.60;98.50;;;;;;10407306;28;20151;-79
2022/10/21 14:31:18;;;;;;;29.27;15.18;;;12.60;98.90;;;;;;10406880;28;20382;-79
2022/10/21 14:36:23;;;;;;;34.95;17.63;;;12.50;99.30;;;;;;10406975;28;20048;-81
2022/10/21 14:41:36;;;;;;;34.67;18.87;;;12.40;99.50;;;;;;10406088;28;20138;-79
2022/10/21 14:46:41;;;;;;;38.38;22.10;;;12.40;99.70;;;;;;10392951;28;20470;-79
2022/10/21 14:51:42;;;;;;;40.15;20.23;;;12.40;99.90;;;;;;10402079;28;20576;-78
2022/10/21 14:56:43;;;;;;;50.65;26.50;;;12.30;99.90;;;;;;10406336;28;20041;-81
2022/10/21 15:01:43;;;;;;;73.30;49.85;;;12.20;99.90;;;;;;10397390;28;20033;-81
2022/10/21 15:07:00;;;;;;;75.32;52.83;;;12.10;99.90;;;;;;10399576;28;20053;-80
2022/10/21 15:12:17;;;;;;;124.18;56.42;;;12.00;99.90;;;;;;10387589;28;20091;-79
2022/10/21 15:17:21;;;;;;;127.40;64.32;;;11.90;99.90;;;;;;10398273;28;20111;-81
2022/10/21 15:22:29;;;;;;;126.25;65.25;;;11.80;99.90;;;;;;10397104;28;20053;-79
2022/10/21 15:27:37;;;;;;;123.07;61.13;;;11.70;99.90;;;;;;10397310;28;20120;-80
2022/10/21 15:32:37;;;;;;;261.58;131.10;;;11.60;99.90;;;;;;10391963;28;20037;-81
2022/10/21 15:37:38;;;;;;;246.15;113.10;;;11.50;99.90;;;;;;10401717;28;20037;-81
2022/10/21 15:42:38;;;;;;;144.52;64.45;;;11.50;99.90;;;;;;10394964;28;20053;-81
2022/10/21 15:47:39;;;;;;;89.72;39.53;;;11.40;99.90;;;;;;10400821;28;20029;-79
2022/10/21 15:52:39;;;;;;;170.15;72.80;;;11.40;99.90;;;;;;10406956;28;20033;-79
2022/10/21 15:57:41;;;;;;;66.20;28.40;;;11.40;99.90;;;;;;10406097;28;20050;-78
2022/10/21 16:02:41;;;;;;;45.03;20.42;;;11.50;99.90;;;;;;10399154;28;20121;-79
2022/10/21 16:07:43;;;;;;;29.65;15.18;;;11.60;99.90;;;;;;10389948;28;20049;-78
2022/10/21 16:12:44;;;;;;;46.15;21.38;;;11.60;99.90;;;;;;10397167;28;20088;-78
2022/10/21 16:17:47;;;;;;;51.45;22.05;;;11.70;99.90;;;;;;10395696;28;20548;-80
2022/10/21 16:22:47;;;;;;;55.50;22.67;;;11.70;99.90;;;;;;10388844;28;20065;-81
2022/10/21 16:27:48;;;;;;;91.20;36.67;;;11.70;99.90;;;;;;10399573;28;20446;-79
2022/10/21 16:32:50;;;;;;;128.30;54.03;;;11.60;99.90;;;;;;10403215;28;20048;-82
2022/10/21 16:37:51;;;;;;;70.90;31.48;;;11.60;99.90;;;;;;10406427;28;20100;-79
2022/10/21 16:42:52;;;;;;;51.55;24.25;;;11.60;99.90;;;;;;10384535;28;20520;-78
2022/10/21 16:47:55;;;;;;;37.47;19.00;;;11.60;99.90;;;;;;10403293;28;20025;-82
2022/10/21 16:52:56;;;;;;;45.50;21.52;;;11.60;99.90;;;;;;10399102;28;20118;-78
2022/10/21 16:57:56;;;;;;;62.38;28.15;;;11.60;99.90;;;;;;10402434;28;20513;-79
2022/10/21 17:02:57;;;;;;;45.35;21.85;;;11.50;99.90;;;;;;10402780;28;20044;-82
2022/10/21 17:07:58;;;;;;;91.10;34.90;;;11.50;99.90;;;;;;10404125;28;20492;-79
2022/10/21 17:13:00;;;;;;;44.03;22.45;;;11.40;99.90;;;;;;10400786;28;20124;-77
2022/10/21 17:18:00;;;;;;;45.15;22.77;;;11.40;99.90;;;;;;10407715;28;20381;-80
2022/10/21 17:23:01;;;;;;;47.85;21.55;;;11.40;99.90;;;;;;10388836;28;20037;-79
2022/10/21 17:28:02;;;;;;;31.90;17.20;;;11.40;99.90;;;;;;10401336;28;20041;-78
2022/10/21 17:33:02;;;;;;;52.97;23.92;;;11.40;99.90;;;;;;10397902;28;20037;-79
2022/10/21 17:38:03;;;;;;;45.10;19.25;;;11.40;99.90;;;;;;10400596;28;20060;-78
2022/10/21 17:43:04;;;;;;;40.35;19.17;;;11.30;99.90;;;;;;10407219;28;20017;-78
2022/10/21 17:48:04;;;;;;;43.47;18.85;;;11.40;99.90;;;;;;10404121;28;20040;-77
2022/10/21 17:53:05;;;;;;;23.17;13.65;;;11.40;99.90;;;;;;10395559;28;20029;-79
2022/10/21 17:58:05;;;;;;;42.60;17.55;;;11.40;99.90;;;;;;10390056;28;20041;-78
2022/10/21 18:03:06;;;;;;;38.70;17.80;;;11.40;99.90;;;;;;10416329;28;20031;-81
2022/10/21 18:08:06;;;;;;;34.97;17.23;;;11.40;99.90;;;;;;10396132;28;20132;-78
2022/10/21 18:13:07;;;;;;;72.50;30.70;;;11.40;99.90;;;;;;10392095;28;20026;-78
2022/10/21 18:18:08;;;;;;;56.72;26.33;;;11.30;99.90;;;;;;10384230;28;20123;-78
2022/10/21 18:23:08;;;;;;;58.75;26.17;;;11.20;99.90;;;;;;10393928;28;20025;-79
2022/10/21 18:28:09;;;;;;;39.75;18.85;;;11.10;99.90;;;;;;10385103;28;20037;-81
2022/10/21 18:33:09;;;;;;;58.20;25.20;;;11.10;99.90;;;;;;10393518;28;20040;-78
2022/10/21 18:38:10;;;;;;;49.55;22.30;;;11.00;99.90;;;;;;10406797;28;20037;-80
2022/10/21 18:43:12;;;;;;;69.07;31.30;;;10.90;99.90;;;;;;10392062;28;20041;-79
2022/10/21 18:48:12;;;;;;;68.35;30.05;;;10.80;99.90;;;;;;10399623;28;20107;-78
2022/10/21 18:53:13;;;;;;;62.88;30.00;;;10.60;99.90;;;;;;10405235;28;20716;-79
2022/10/21 18:58:14;;;;;;;49.00;23.95;;;10.50;99.90;;;;;;10405556;28;20041;-78
2022/10/21 19:03:14;;;;;;;33.42;17.85;;;10.40;99.90;;;;;;10401236;28;20021;-79
2022/10/21 19:08:15;;;;;;;37.75;20.13;;;10.40;99.90;;;;;;10405639;28;20053;-81
2022/10/21 19:13:15;;;;;;;35.25;19.98;;;10.40;99.90;;;;;;10390381;28;20033;-79
2022/10/21 19:18:16;;;;;;;41.95;22.48;;;10.30;99.90;;;;;;10400293;28;20049;-81
2022/10/21 19:23:16;;;;;;;44.50;22.80;;;10.30;99.90;;;;;;10392149;28;20117;-79
2022/10/21 19:28:17;;;;;;;54.92;27.08;;;10.20;99.90;;;;;;10396108;28;20484;-79
2022/10/21 19:33:17;;;;;;;56.50;26.83;;;10.20;99.90;;;;;;10403382;28;20424;-79
2022/10/21 19:38:18;;;;;;;52.42;28.35;;;10.10;99.90;;;;;;10398516;28;20037;-80
2022/10/21 19:43:18;;;;;;;52.55;29.13;;;10.10;99.90;;;;;;10395531;28;20355;-80
2022/10/21 19:48:20;;;;;;;56.83;30.83;;;10.00;99.90;;;;;;10403117;28;20021;-79
2022/10/21 19:53:20;;;;;;;54.28;28.23;;;10.00;99.90;;;;;;10389905;28;20029;-79
2022/10/21 19:58:21;;;;;;;36.58;19.10;;;10.00;99.90;;;;;;10398606;28;20037;-80
2022/10/21 20:03:21;;;;;;;32.65;17.92;;;10.00;99.90;;;;;;10403941;28;20461;-79
2022/10/21 20:08:22;;;;;;;34.00;19.45;;;9.90;99.90;;;;;;10402507;28;20056;-79
2022/10/21 20:13:23;;;;;;;33.10;18.05;;;9.90;99.90;;;;;;10397562;28;20392;-80
2022/10/21 20:18:24;;;;;;;41.13;20.45;;;9.90;99.90;;;;;;10402208;28;20469;-79
2022/10/21 20:23:25;;;;;;;40.17;21.77;;;9.80;99.90;;;;;;10403116;28;20038;-78
2022/10/21 20:28:27;;;;;;;42.67;22.40;;;9.80;99.90;;;;;;10389534;28;20080;-78
2022/10/21 20:33:29;;;;;;;38.03;21.60;;;9.70;99.90;;;;;;10395713;28;20577;-81
2022/10/21 20:38:31;;;;;;;41.77;22.83;;;9.70;99.90;;;;;;10409142;28;20816;-80
2022/10/21 20:43:33;;;;;;;38.28;21.45;;;9.70;99.90;;;;;;10400173;28;20459;-81
2022/10/21 20:48:34;;;;;;;49.37;27.03;;;9.70;99.90;;;;;;10397407;28;20029;-79
2022/10/21 20:53:35;;;;;;;48.67;26.90;;;9.70;99.90;;;;;;10409537;28;20060;-78
2022/10/21 20:58:38;;;;;;;47.67;24.83;;;9.70;99.90;;;;;;10409376;28;20120;-78
2022/10/21 21:03:41;;;;;;;33.00;17.50;;;9.70;99.90;;;;;;10403427;28;20060;-78
2022/10/21 21:08:42;;;;;;;32.30;17.10;;;9.70;99.90;;;;;;10405542;28;20099;-78
2022/10/21 21:13:43;;;;;;;29.93;15.43;;;9.80;99.90;;;;;;10399123;28;20060;-78
2022/10/21 21:18:55;;;;;;;46.03;23.57;;;9.80;99.90;;;;;;10401370;28;20117;-78
2022/10/21 21:23:56;;;;;;;31.80;18.70;;;9.80;99.90;;;;;;10404358;28;20049;-78
2022/10/21 21:28:57;;;;;;;36.70;20.77;;;9.90;99.90;;;;;;10398357;28;20029;-84
2022/10/21 21:33:57;;;;;;;38.55;20.92;;;9.90;99.90;;;;;;10405115;28;20413;-79
2022/10/21 21:38:58;;;;;;;37.13;19.90;;;10.00;99.90;;;;;;10408574;28;20557;-80
2022/10/21 21:43:59;;;;;;;42.38;22.30;;;10.00;99.90;;;;;;10392877;28;20022;-79
2022/10/21 21:49:02;;;;;;;38.30;21.58;;;10.00;99.90;;;;;;10399651;28;20696;-79
2022/10/21 21:54:04;;;;;;;36.53;20.05;;;9.90;99.90;;;;;;10395929;28;20036;-79
2022/10/21 21:59:04;;;;;;;32.60;17.67;;;9.90;99.90;;;;;;10399524;28;20456;-81
2022/10/21 22:04:05;;;;;;;36.03;18.75;;;9.80;99.90;;;;;;10401721;28;20025;-82
2022/10/21 22:09:08;;;;;;;33.20;18.38;;;9.80;99.90;;;;;;10406364;28;20127;-79
2022/10/21 22:14:09;;;;;;;34.07;18.53;;;9.80;99.90;;;;;;10399682;28;20038;-81
2022/10/21 22:19:11;;;;;;;28.27;16.83;;;9.80;99.90;;;;;;10406055;28;20038;-81
2022/10/21 22:24:12;;;;;;;26.97;14.93;;;9.70;99.90;;;;;;10397060;28;20029;-80
2022/10/21 22:29:12;;;;;;;27.47;16.03;;;9.70;99.90;;;;;;10396071;28;20033;-79
2022/10/21 22:34:13;;;;;;;26.57;16.37;;;9.70;99.90;;;;;;10406071;28;20389;-78
2022/10/21 22:39:13;;;;;;;36.27;22.17;;;9.70;99.90;;;;;;10404565;28;20021;-79
2022/10/21 22:44:14;;;;;;;25.92;13.68;;;9.80;99.90;;;;;;10397998;28;20029;-81
2022/10/21 22:49:15;;;;;;;24.50;13.20;;;9.80;99.90;;;;;;10404201;28;20021;-79
2022/10/21 22:54:15;;;;;;;25.63;13.57;;;9.90;99.90;;;;;;10394918;28;20037;-79
2022/10/21 22:59:16;;;;;;;31.75;16.15;;;9.90;99.90;;;;;;10404955;28;20124;-79
2022/10/21 23:04:17;;;;;;;20.77;12.40;;;10.00;99.90;;;;;;10392729;28;20029;-79
2022/10/21 23:09:17;;;;;;;22.73;11.67;;;10.00;99.90;;;;;;10396238;28;20455;-82
2022/10/21 23:14:18;;;;;;;20.13;11.63;;;10.10;99.90;;;;;;10392448;28;20092;-78
2022/10/21 23:19:18;;;;;;;21.00;11.07;;;10.10;99.90;;;;;;10403142;28;20555;-80
2022/10/21 23:24:19;;;;;;;15.73;9.80;;;10.10;99.90;;;;;;10404157;28;20100;-78
2022/10/21 23:29:19;;;;;;;17.52;10.02;;;10.20;99.90;;;;;;10404278;28;20036;-79
2022/10/21 23:34:20;;;;;;;17.48;10.55;;;10.30;99.90;;;;;;10403348;28;20507;-81
2022/10/21 23:39:20;;;;;;;20.17;11.63;;;10.30;99.90;;;;;;10403199;28;20037;-78
2022/10/21 23:44:21;;;;;;;26.00;14.05;;;10.30;99.90;;;;;;10401379;28;20030;-79
2022/10/21 23:49:22;;;;;;;32.50;15.25;;;10.30;99.90;;;;;;10398416;28;20039;-78
2022/10/21 23:54:23;;;;;;;24.35;14.75;;;10.20;99.90;;;;;;10403251;28;20141;-78
2022/10/21 23:59:23;;;;;;;26.88;14.18;;;10.20;99.90;;;;;;10398557;28;20120;-80
